createdAt,value
2022-10-12T00:01:19.496Z,86.29
2022-10-12T00:03:46.086Z,85.58
2022-10-12T00:06:16.281Z,85.99
2022-10-12T00:08:45.065Z,85.86
2022-10-12T00:11:15.168Z,85.41
2022-10-12T00:13:42.099Z,85.46
2022-10-12T08:11:30.483Z,94.76
2022-10-12T08:13:57.190Z,94.83
2022-10-12T08:16:24.222Z,94.91
2022-10-12T08:18:51.137Z,95.96
2022-10-12T08:21:18.381Z,96.31
2022-10-12T09:30:26.111Z,88.32
2022-10-12T09:36:42.479Z,88.24
2022-10-12T09:39:30.966Z,87.55
2022-10-12T09:41:57.676Z,87.43
2022-10-12T09:48:56.662Z,85.01
2022-10-12T09:51:23.463Z,85.20
2022-10-12T09:53:55.336Z,84.98
2022-10-12T09:56:29.740Z,83.73
2022-10-12T09:59:01.191Z,83.16
2022-10-12T10:01:36.278Z,83.06
2022-10-12T10:04:16.796Z,82.44
2022-10-12T10:06:46.250Z,82.04
2022-10-12T10:09:34.379Z,81.65
2022-10-12T10:12:22.848Z,81.98
2022-10-12T10:14:51.322Z,81.66
2022-10-12T10:17:25.383Z,81.46
2022-10-12T10:19:53.380Z,80.39
2022-10-12T10:22:21.719Z,79.55
2022-10-12T10:25:00.217Z,80.08
2022-10-12T10:27:27.361Z,77.96
2022-10-12T10:30:29.765Z,77.70
2022-10-12T10:33:17.809Z,77.15
2022-10-12T10:35:57.236Z,76.55
2022-10-12T10:38:23.772Z,76.90
2022-10-12T10:40:52.361Z,76.91
2022-10-12T10:43:27.753Z,76.60
2022-10-12T10:46:03.345Z,75.98
2022-10-12T10:48:35.589Z,75.30
2022-10-12T10:51:07.196Z,74.82
2022-10-12T10:53:48.154Z,74.75
2022-10-12T10:56:14.950Z,74.24
2022-10-12T10:58:48.181Z,73.37
2022-10-12T11:01:33.797Z,72.47
2022-10-12T11:04:09.554Z,72.74
2022-10-12T11:06:40.974Z,72.04
2022-10-12T11:09:23.519Z,71.62
2022-10-12T11:12:17.074Z,71.64
2022-10-12T11:14:48.179Z,70.97
2022-10-12T11:17:37.906Z,70.46
2022-10-12T11:20:41.736Z,71.20
2022-10-12T11:23:29.306Z,70.40
2022-10-12T11:26:16.113Z,70.84
2022-10-12T11:28:43.375Z,70.67
2022-10-12T11:31:38.165Z,70.12
2022-10-12T11:34:13.761Z,69.35
2022-10-12T11:36:55.803Z,67.99
2022-10-12T11:39:43.836Z,68.29
2022-10-12T11:42:21.796Z,67.30
2022-10-12T11:44:48.994Z,66.70
2022-10-12T11:47:24.123Z,65.86
2022-10-12T11:49:59.156Z,65.67
2022-10-12T11:52:36.232Z,66.34
2022-10-12T11:55:27.020Z,65.74
2022-10-12T11:57:55.950Z,66.11
2022-10-12T12:01:01.023Z,65.12
2022-10-12T12:03:38.746Z,65.05
2022-10-12T12:06:30.461Z,63.28
2022-10-12T12:09:03.022Z,64.85
2022-10-12T12:11:34.969Z,63.74
2022-10-12T12:14:44.044Z,64.79
2022-10-12T12:17:20.658Z,64.30
2022-10-12T12:19:51.541Z,64.14
2022-10-12T12:22:27.274Z,64.57
2022-10-12T12:24:59.870Z,64.81
2022-10-12T12:27:31.870Z,63.25
2022-10-12T12:30:01.453Z,59.25
2022-10-12T12:32:50.170Z,55.66
2022-10-12T12:35:30.921Z,57.33
2022-10-12T12:38:06.497Z,55.30
2022-10-12T12:40:34.198Z,57.39
2022-10-12T12:43:19.577Z,58.09
2022-10-12T12:46:11.691Z,56.67
2022-10-12T12:48:47.517Z,56.18
2022-10-12T12:51:26.934Z,54.32
2022-10-12T12:53:59.536Z,55.76
2022-10-12T12:57:17.524Z,54.82
2022-10-12T13:00:21.860Z,53.06
2022-10-12T13:03:15.761Z,55.80
2022-10-12T13:05:51.058Z,54.84
2022-10-12T13:08:26.658Z,52.66
2022-10-12T13:11:25.654Z,51.80
2022-10-12T13:14:27.762Z,51.01
2022-10-12T13:17:36.412Z,51.69
2022-10-12T13:20:21.735Z,51.96
2022-10-12T13:22:52.062Z,52.01
2022-10-12T13:25:29.700Z,52.58
2022-10-12T13:27:58.516Z,52.61
2022-10-12T13:30:47.942Z,51.69
2022-10-12T13:33:38.861Z,51.70
2022-10-12T13:36:10.401Z,51.72
2022-10-12T13:38:39.154Z,52.25
2022-10-12T13:41:13.317Z,52.12
2022-10-12T13:43:48.819Z,51.89
2022-10-12T13:46:37.182Z,51.92
2022-10-12T13:49:17.042Z,51.73
2022-10-12T13:51:46.849Z,52.61
2022-10-12T13:54:37.807Z,51.99
2022-10-12T13:57:29.168Z,52.53
2022-10-12T14:00:00.666Z,52.30
2022-10-12T14:02:30.325Z,53.32
2022-10-12T14:04:59.545Z,53.64
2022-10-12T14:07:36.107Z,52.29
2022-10-12T14:10:33.170Z,52.78
2022-10-12T14:13:02.122Z,53.13
2022-10-12T14:15:34.190Z,52.24
2022-10-12T14:18:01.069Z,53.41
2022-10-12T14:20:29.822Z,54.21
2022-10-12T14:22:58.539Z,53.91
2022-10-12T14:25:30.791Z,53.55
2022-10-12T14:28:01.856Z,54.40
2022-10-12T14:30:50.574Z,54.19
2022-10-12T14:33:17.068Z,54.23
2022-10-12T14:35:48.149Z,54.69
2022-10-12T14:38:44.493Z,54.50
2022-10-12T14:41:38.314Z,55.35
2022-10-12T14:44:10.486Z,55.34
2022-10-12T14:46:41.221Z,55.58
2022-10-12T14:49:16.675Z,54.44
2022-10-12T14:51:43.577Z,54.32
2022-10-12T14:54:10.889Z,54.65
2022-10-12T14:56:37.525Z,55.22
2022-10-12T14:59:04.186Z,54.54
2022-10-12T15:01:31.031Z,53.78
2022-10-12T15:03:57.692Z,54.41
2022-10-12T15:06:24.367Z,54.42
2022-10-12T15:08:52.536Z,55.27
2022-10-12T15:11:19.406Z,54.75
2022-10-12T15:13:46.344Z,54.96
2022-10-12T15:16:22.233Z,55.61
2022-10-12T15:18:49.616Z,56.20
2022-10-12T15:21:17.288Z,56.15
2022-10-12T15:23:43.988Z,56.24
2022-10-12T15:26:16.040Z,56.61
2022-10-12T15:28:43.834Z,56.71
2022-10-12T15:31:17.490Z,57.60
2022-10-12T15:33:44.787Z,58.31
2022-10-12T15:36:11.542Z,58.80
2022-10-12T15:38:38.359Z,59.16
2022-10-12T15:41:05.198Z,59.38
2022-10-12T15:43:33.672Z,59.81
2022-10-12T15:46:02.373Z,60.01
2022-10-12T15:48:29.217Z,58.66
2022-10-12T15:50:55.930Z,59.10
2022-10-12T15:53:24.939Z,59.02
2022-10-12T15:55:53.124Z,59.48
2022-10-12T15:58:20.598Z,59.64
2022-10-12T16:00:47.803Z,59.90
2022-10-12T16:03:21.300Z,60.74
2022-10-12T16:05:51.041Z,60.91
2022-10-12T16:08:17.593Z,61.53
2022-10-12T16:10:45.555Z,61.61
2022-10-12T16:13:13.933Z,61.79
2022-10-12T16:15:41.898Z,61.95
2022-10-12T16:18:09.457Z,62.29
2022-10-12T16:20:37.970Z,62.58
2022-10-12T16:23:08.320Z,62.96
2022-10-12T16:25:35.531Z,63.46
2022-10-12T16:28:02.156Z,63.84
2022-10-12T16:30:28.810Z,64.06
2022-10-12T16:32:55.506Z,64.23
2022-10-12T16:35:22.388Z,64.51
2022-10-12T16:37:49.328Z,64.65
2022-10-12T16:40:16.218Z,65.11
2022-10-12T16:42:43.393Z,65.01
2022-10-12T16:45:11.028Z,65.22
2022-10-12T16:47:41.911Z,65.58
2022-10-12T16:50:10.120Z,65.99
2022-10-12T16:52:36.840Z,66.22
2022-10-12T16:55:04.340Z,66.50
2022-10-12T16:57:31.288Z,66.64
2022-10-12T16:59:58.785Z,67.07
2022-10-12T17:02:27.440Z,66.86
2022-10-12T17:04:54.090Z,67.73
2022-10-12T17:07:20.765Z,68.09
2022-10-12T17:09:47.477Z,67.74
2022-10-12T17:12:14.448Z,68.21
2022-10-12T17:14:41.304Z,68.44
2022-10-12T17:17:07.983Z,68.83
2022-10-12T17:19:40.119Z,69.01
2022-10-12T17:22:10.025Z,69.18
2022-10-12T17:24:38.612Z,69.08
2022-10-12T17:27:07.986Z,69.35
2022-10-12T17:29:36.456Z,69.29
2022-10-12T17:32:04.229Z,69.87
2022-10-12T17:34:33.736Z,69.95
2022-10-12T17:37:01.402Z,70.25
2022-10-12T17:39:30.702Z,70.39
2022-10-12T17:41:57.266Z,70.79
2022-10-12T17:44:23.907Z,70.75
2022-10-12T17:46:50.601Z,71.17
2022-10-12T17:49:23.618Z,71.06
2022-10-12T17:51:51.471Z,71.46
2022-10-12T17:54:19.629Z,71.57
2022-10-12T17:56:46.372Z,71.26
2022-10-12T17:59:19.522Z,71.25
2022-10-12T18:01:47.367Z,71.84
2022-10-12T18:04:14.489Z,71.94
2022-10-12T18:06:41.197Z,73.23
2022-10-12T18:09:09.068Z,73.62
2022-10-12T18:11:37.185Z,73.29
2022-10-12T18:14:03.842Z,73.42
2022-10-12T18:16:32.966Z,73.68
2022-10-12T18:19:01.844Z,74.02
2022-10-12T18:21:30.612Z,74.15
2022-10-12T18:23:57.375Z,74.28
2022-10-12T18:26:25.016Z,74.83
2022-10-12T18:28:53.720Z,74.90
2022-10-12T18:31:25.084Z,75.04
2022-10-12T18:33:52.874Z,75.37
2022-10-12T18:36:20.723Z,74.86
2022-10-12T18:38:47.563Z,75.74
2022-10-12T18:41:17.185Z,76.29
2022-10-12T18:43:44.211Z,76.04
2022-10-12T18:46:13.665Z,76.41
2022-10-12T18:48:40.646Z,75.94
2022-10-12T18:51:15.774Z,76.95
2022-10-12T18:53:42.450Z,77.83
2022-10-12T18:56:10.381Z,77.68
2022-10-12T18:58:39.751Z,78.38
2022-10-12T19:01:19.423Z,78.04
2022-10-12T19:03:47.954Z,78.29
2022-10-12T19:06:17.800Z,78.94
2022-10-12T19:08:44.854Z,79.31
2022-10-12T19:11:12.826Z,79.88
2022-10-12T19:13:40.697Z,79.42
2022-10-12T19:16:17.327Z,79.14
2022-10-12T19:18:44.131Z,80.16
2022-10-12T19:21:14.007Z,80.18
2022-10-12T19:23:41.290Z,80.30
2022-10-12T19:26:10.754Z,80.88
2022-10-12T19:28:37.303Z,79.70
2022-10-12T19:31:31.405Z,81.36
2022-10-12T19:34:00.746Z,81.66
2022-10-12T19:36:28.268Z,81.30
2022-10-12T19:38:56.499Z,81.18
2022-10-12T19:41:23.640Z,81.22
2022-10-12T19:43:50.297Z,81.75
2022-10-12T19:46:16.888Z,82.29
2022-10-12T19:48:47.872Z,81.97
2022-10-12T19:51:14.472Z,82.39
2022-10-12T19:53:41.883Z,82.14
2022-10-12T19:56:14.240Z,82.68
2022-10-12T19:58:42.264Z,82.30
2022-10-12T20:01:12.617Z,82.59
2022-10-12T20:03:44.074Z,82.51
2022-10-12T20:06:13.498Z,83.12
2022-10-12T20:08:41.267Z,83.19
2022-10-12T20:11:11.255Z,83.18
2022-10-12T20:13:40.946Z,83.69
2022-10-12T20:16:08.013Z,84.61
2022-10-12T20:18:34.672Z,83.67
2022-10-12T20:21:05.581Z,83.63
2022-10-12T20:23:36.905Z,84.02
2022-10-12T20:26:10.253Z,85.68
2022-10-12T20:28:37.794Z,84.71
2022-10-12T20:31:05.801Z,84.68
2022-10-12T20:33:33.175Z,85.08
2022-10-12T20:36:00.038Z,84.56
2022-10-12T20:38:26.912Z,85.03
2022-10-12T20:41:10.755Z,85.05
2022-10-12T20:43:41.757Z,84.98
2022-10-12T20:46:12.891Z,85.26
2022-10-12T20:48:40.238Z,85.73
2022-10-12T20:51:17.666Z,86.34
2022-10-12T20:53:44.298Z,85.22
2022-10-12T20:56:11.361Z,85.23
2022-10-12T20:58:38.358Z,85.64
2022-10-12T21:01:11.056Z,86.65
2022-10-12T21:03:38.453Z,86.67
2022-10-12T21:06:06.922Z,87.16
2022-10-12T21:08:33.920Z,87.49
2022-10-12T21:11:00.742Z,88.24
2022-10-12T21:13:30.713Z,87.46
2022-10-12T21:15:57.503Z,87.27
2022-10-12T21:18:24.289Z,87.36
2022-10-12T21:20:59.697Z,88.07
2022-10-12T21:23:27.253Z,86.84
2022-10-12T21:25:54.901Z,86.64
2022-10-12T21:28:23.025Z,86.76
2022-10-12T21:30:50.506Z,87.11
2022-10-12T21:33:18.622Z,86.95
2022-10-12T21:35:45.700Z,86.99
2022-10-12T21:38:12.309Z,87.13
2022-10-12T21:40:38.917Z,88.14
2022-10-12T21:43:05.523Z,87.19
2022-10-12T21:45:33.070Z,87.15
2022-10-12T21:47:59.976Z,87.62
2022-10-12T21:50:27.398Z,87.24
2022-10-12T21:52:59.296Z,87.84
2022-10-12T21:55:27.078Z,87.69
2022-10-12T21:57:53.658Z,87.84
2022-10-12T22:00:20.346Z,87.69
2022-10-12T22:02:46.988Z,87.99
2022-10-12T22:05:13.740Z,88.00
2022-10-12T22:07:43.156Z,87.97
2022-10-12T22:10:12.807Z,87.84
2022-10-12T22:12:39.706Z,87.62
2022-10-12T22:15:10.044Z,87.68
2022-10-12T22:17:36.696Z,87.89
2022-10-12T22:20:04.215Z,87.89
2022-10-12T22:22:30.856Z,87.33
2022-10-12T22:24:57.486Z,87.69
2022-10-12T22:27:24.213Z,87.82
2022-10-12T22:29:51.085Z,88.27
2022-10-12T22:32:17.999Z,88.00
2022-10-12T22:34:44.842Z,88.40
2022-10-12T22:37:11.395Z,88.60
2022-10-12T22:39:37.948Z,88.37
2022-10-12T22:42:04.576Z,89.42
2022-10-12T22:44:31.112Z,90.26
2022-10-12T22:46:57.748Z,90.10
2022-10-12T22:49:24.323Z,89.31
2022-10-12T22:51:50.966Z,89.19
2022-10-12T22:54:17.643Z,89.26
2022-10-12T22:56:44.397Z,90.05
2022-10-12T22:59:14.612Z,89.95
2022-10-12T23:01:41.588Z,89.96
2022-10-12T23:04:08.348Z,90.16
2022-10-12T23:06:35.256Z,90.14
2022-10-12T23:09:02.464Z,90.26
2022-10-12T23:11:30.001Z,90.44
2022-10-12T23:13:57.962Z,89.91
2022-10-12T23:16:32.300Z,90.60
2022-10-12T23:19:05.073Z,90.62
2022-10-12T23:21:33.621Z,90.70
2022-10-12T23:24:01.784Z,89.97
2022-10-12T23:26:29.473Z,90.18
2022-10-12T23:28:56.740Z,90.40
2022-10-12T23:31:27.316Z,90.83
2022-10-12T23:34:02.018Z,93.47
2022-10-12T23:36:29.308Z,95.07
2022-10-12T23:38:56.377Z,94.42
2022-10-12T23:41:23.069Z,93.76
2022-10-12T23:43:49.668Z,92.68
2022-10-12T23:46:16.285Z,93.24
2022-10-12T23:48:42.860Z,92.87
2022-10-12T23:51:09.889Z,92.95
2022-10-12T23:53:37.009Z,92.42
2022-10-12T23:56:04.493Z,92.27
2022-10-12T23:58:31.164Z,92.38
